Time;durP1;ratioP1;P1;durP2;ratioP2;P2;SDS_P1;SDS_P2;PMS_P1;PMS_P2;Temp;Humidity;BMP_temperature;BMP_pressure;BME280_temperature;BME280_humidity;BME280_pressure;Samples;Min_cycle;Max_cycle;Signal;HPM_P1;HPM_P2
2021/06/08 00:02:04;;;;;;;12.80;11.70;;;19.50;99.90;;;;;;5006414;28;20508;-85
2021/06/08 00:04:31;;;;;;;12.93;11.80;;;19.40;99.90;;;;;;5015640;28;20866;-86
2021/06/08 00:06:57;;;;;;;12.70;11.60;;;19.30;99.90;;;;;;5028706;28;20565;-85
2021/06/08 00:09:24;;;;;;;11.80;10.80;;;19.50;99.90;;;;;;5013639;28;20497;-85
2021/06/08 00:11:51;;;;;;;12.43;11.33;;;19.30;99.90;;;;;;5030535;28;20434;-84
2021/06/08 00:14:17;;;;;;;12.50;11.40;;;19.30;99.90;;;;;;5004151;28;20459;-84
2021/06/08 00:16:45;;;;;;;11.07;10.07;;;19.30;99.90;;;;;;5026357;28;20462;-85
2021/06/08 00:19:12;;;;;;;13.27;12.07;;;19.30;99.90;;;;;;5032431;28;20435;-86
2021/06/08 00:21:38;;;;;;;11.97;10.87;;;19.50;99.90;;;;;;5012440;28;20419;-86
2021/06/08 00:24:05;;;;;;;12.83;11.73;;;19.50;99.90;;;;;;5013225;28;20462;-85
2021/06/08 00:26:33;;;;;;;11.63;10.47;;;19.40;99.90;;;;;;5018840;28;20477;-85
2021/06/08 00:28:59;;;;;;;11.30;10.30;;;19.30;99.90;;;;;;5025015;28;20429;-86
2021/06/08 00:31:26;;;;;;;12.60;11.50;;;19.40;99.90;;;;;;5014197;28;20439;-85
2021/06/08 00:33:54;;;;;;;12.07;11.07;;;19.40;99.90;;;;;;5018896;28;20529;-87
2021/06/08 00:36:20;;;;;;;12.73;11.60;;;19.20;99.90;;;;;;5007077;28;20525;-85
2021/06/08 00:38:47;;;;;;;13.40;12.03;;;19.30;99.90;;;;;;5009694;28;20963;-86
2021/06/08 00:41:14;;;;;;;15.10;13.70;;;19.20;99.90;;;;;;5031964;28;20545;-85
2021/06/08 00:43:40;;;;;;;15.57;14.07;;;19.40;99.90;;;;;;5010563;28;20502;-84
2021/06/08 00:46:07;;;;;;;14.80;13.10;;;19.40;99.90;;;;;;5019400;28;20483;-86
2021/06/08 00:48:34;;;;;;;15.17;13.87;;;19.20;99.90;;;;;;5020002;28;20462;-86
2021/06/08 00:51:02;;;;;;;13.13;12.03;;;19.30;99.90;;;;;;5004379;28;20537;-85
2021/06/08 00:53:28;;;;;;;15.07;13.70;;;19.20;99.90;;;;;;5016099;28;20465;-84
2021/06/08 00:55:55;;;;;;;15.63;14.20;;;19.40;99.90;;;;;;5022488;28;20498;-84
2021/06/08 00:58:21;;;;;;;14.40;13.10;;;19.20;99.90;;;;;;5001977;28;20447;-85
2021/06/08 01:00:48;;;;;;;14.77;13.43;;;19.20;99.90;;;;;;5012221;28;20437;-85
2021/06/08 01:03:14;;;;;;;15.67;14.07;;;19.30;99.90;;;;;;5024371;28;20466;-86
2021/06/08 01:05:41;;;;;;;14.80;13.43;;;19.30;99.90;;;;;;5019759;28;20479;-85
2021/06/08 01:08:09;;;;;;;15.30;13.90;;;19.40;99.90;;;;;;5015524;28;20522;-85
2021/06/08 01:10:37;;;;;;;15.87;14.47;;;19.20;99.90;;;;;;5020812;28;20490;-86
2021/06/08 01:13:04;;;;;;;16.77;15.17;;;19.20;99.90;;;;;;5028649;28;20461;-88
2021/06/08 01:15:30;;;;;;;15.97;14.57;;;19.20;99.90;;;;;;5022771;28;20999;-87
2021/06/08 01:17:57;;;;;;;15.20;13.80;;;19.40;99.90;;;;;;5021321;28;20436;-85
2021/06/08 01:20:25;;;;;;;16.80;13.67;;;19.30;99.90;;;;;;5005758;28;20950;-83
2021/06/08 01:22:54;;;;;;;14.90;13.60;;;19.20;99.90;;;;;;5016206;28;20468;-84
2021/06/08 01:25:20;;;;;;;15.60;14.10;;;19.10;99.90;;;;;;5004487;28;20535;-84
2021/06/08 01:27:47;;;;;;;16.23;14.60;;;19.30;99.90;;;;;;5017726;28;20435;-86
2021/06/08 01:30:15;;;;;;;15.27;13.97;;;19.30;99.90;;;;;;5018869;28;20514;-83
2021/06/08 01:32:44;;;;;;;15.70;13.17;;;19.10;99.90;;;;;;5007249;28;20438;-84
2021/06/08 01:35:13;;;;;;;15.90;14.40;;;19.20;99.90;;;;;;5007419;28;20433;-85
2021/06/08 01:37:40;;;;;;;15.60;14.20;;;19.00;99.90;;;;;;5006485;28;20458;-85
2021/06/08 01:40:10;;;;;;;15.97;14.57;;;19.30;99.90;;;;;;5019733;28;20455;-86
2021/06/08 01:42:37;;;;;;;14.80;13.40;;;19.10;99.90;;;;;;5028583;28;20433;-85
2021/06/08 01:45:04;;;;;;;15.10;13.70;;;19.00;99.90;;;;;;5019350;28;20440;-86
2021/06/08 01:47:31;;;;;;;15.20;13.70;;;19.00;99.90;;;;;;5004625;28;20513;-86
2021/06/08 01:49:57;;;;;;;15.03;13.73;;;19.20;99.90;;;;;;5006613;28;20553;-85
2021/06/08 01:52:35;;;;;;;15.40;13.80;;;19.00;99.90;;;;;;5000901;28;20503;-86
2021/06/08 01:55:10;;;;;;;16.10;14.60;;;19.10;99.90;;;;;;5030150;28;20458;-84
2021/06/08 01:57:41;;;;;;;15.80;14.37;;;19.00;99.90;;;;;;5002730;28;20483;-84
2021/06/08 02:00:13;;;;;;;15.27;13.90;;;19.10;99.90;;;;;;5001346;28;20446;-84
2021/06/08 02:02:48;;;;;;;14.90;13.53;;;18.90;99.90;;;;;;4985528;28;20438;-84
2021/06/08 02:05:23;;;;;;;15.90;14.50;;;19.00;99.90;;;;;;4992196;28;20434;-85
2021/06/08 02:07:58;;;;;;;16.50;14.93;;;19.10;99.90;;;;;;4994069;28;20519;-84
2021/06/08 02:10:36;;;;;;;16.43;14.83;;;19.10;99.90;;;;;;4980768;28;20461;-84
2021/06/08 02:13:13;;;;;;;17.47;15.77;;;19.10;99.90;;;;;;4980422;28;20646;-84
2021/06/08 02:15:48;;;;;;;17.37;15.77;;;19.10;99.90;;;;;;4979307;28;20453;-84
2021/06/08 02:18:16;;;;;;;17.40;15.80;;;18.90;99.90;;;;;;5003582;28;20430;-84
2021/06/08 02:20:45;;;;;;;17.83;16.03;;;18.90;99.90;;;;;;5018867;28;20452;-83
2021/06/08 02:23:16;;;;;;;16.33;14.87;;;19.00;99.90;;;;;;5019531;28;20436;-85
2021/06/08 02:25:44;;;;;;;18.00;16.10;;;19.00;99.90;;;;;;5010066;28;20936;-85
2021/06/08 02:28:15;;;;;;;17.53;15.83;;;19.10;99.90;;;;;;5013849;28;20536;-85
2021/06/08 02:30:44;;;;;;;18.20;16.50;;;19.00;99.90;;;;;;5006767;28;20495;-84
2021/06/08 02:33:11;;;;;;;18.57;16.80;;;18.90;99.90;;;;;;5020748;28;20451;-85
2021/06/08 02:35:39;;;;;;;17.93;16.17;;;18.90;99.90;;;;;;5014909;28;20813;-85
2021/06/08 02:38:06;;;;;;;16.90;15.30;;;19.10;99.90;;;;;;5020857;28;20493;-85
2021/06/08 02:40:33;;;;;;;17.17;15.50;;;18.90;99.90;;;;;;5021053;28;20432;-85
2021/06/08 02:43:00;;;;;;;18.43;16.83;;;18.90;99.90;;;;;;5021855;28;20462;-85
2021/06/08 02:45:29;;;;;;;19.63;17.70;;;18.90;99.90;;;;;;5004115;28;20436;-85
2021/06/08 02:47:57;;;;;;;20.07;18.27;;;19.00;99.90;;;;;;5008902;28;20467;-85
2021/06/08 02:50:24;;;;;;;18.03;16.23;;;18.90;99.90;;;;;;5004899;28;21884;-85
2021/06/08 02:52:54;;;;;;;20.33;18.33;;;18.90;99.90;;;;;;5025125;28;20429;-84
2021/06/08 02:55:22;;;;;;;18.40;16.50;;;19.00;99.90;;;;;;5015374;28;20491;-86
2021/06/08 02:57:52;;;;;;;19.00;17.10;;;18.90;99.90;;;;;;5017417;28;20504;-86
2021/06/08 03:00:19;;;;;;;17.50;15.83;;;19.10;99.90;;;;;;5003766;28;20440;-86
2021/06/08 03:02:51;;;;;;;19.13;17.17;;;19.00;99.90;;;;;;5020865;28;20442;-86
2021/06/08 03:05:22;;;;;;;17.90;16.20;;;19.00;99.90;;;;;;4996427;28;20456;-86
2021/06/08 03:07:53;;;;;;;17.90;16.20;;;19.10;99.90;;;;;;5013884;28;20541;-83
2021/06/08 03:10:22;;;;;;;18.70;16.80;;;19.00;99.90;;;;;;5011699;28;20476;-86
2021/06/08 03:12:52;;;;;;;17.50;15.90;;;19.10;99.90;;;;;;5006509;28;20438;-85
2021/06/08 03:15:25;;;;;;;21.03;19.03;;;19.10;99.90;;;;;;5026368;28;20944;-86
2021/06/08 03:17:53;;;;;;;19.03;17.37;;;19.00;99.90;;;;;;5011479;28;20681;-86
2021/06/08 03:20:27;;;;;;;20.50;18.20;;;18.80;99.90;;;;;;5027493;28;20550;-84
2021/06/08 03:22:59;;;;;;;18.97;17.07;;;19.10;99.90;;;;;;5023841;28;20433;-86
2021/06/08 03:25:28;;;;;;;21.60;19.50;;;18.90;99.90;;;;;;5007248;28;20438;-86
2021/06/08 03:30:20;;;;;;;22.63;20.40;;;19.00;99.90;;;;;;5023200;28;20512;-86
2021/06/08 03:32:47;;;;;;;24.27;21.80;;;19.00;99.90;;;;;;5023542;28;20495;-86
2021/06/08 03:35:15;;;;;;;22.40;20.17;;;19.00;99.90;;;;;;5018305;28;20487;-85
2021/06/08 03:37:43;;;;;;;21.50;19.40;;;19.00;99.90;;;;;;5024187;28;20458;-85
2021/06/08 03:40:14;;;;;;;23.10;20.67;;;19.00;99.90;;;;;;5010959;28;20831;-84
2021/06/08 03:42:42;;;;;;;23.40;20.90;;;18.80;99.90;;;;;;5011484;28;20450;-85
2021/06/08 03:45:12;;;;;;;22.33;20.23;;;19.00;99.90;;;;;;5008579;28;20426;-84
2021/06/08 03:47:39;;;;;;;23.23;20.90;;;18.80;99.90;;;;;;5013887;28;20476;-85
2021/06/08 03:50:07;;;;;;;21.30;19.20;;;18.90;99.90;;;;;;5029281;28;20490;-86
2021/06/08 03:52:35;;;;;;;22.27;20.17;;;18.80;99.90;;;;;;5018099;28;20549;-88
2021/06/08 03:55:03;;;;;;;20.43;18.43;;;18.70;99.90;;;;;;5022493;28;20473;-85
2021/06/08 03:57:32;;;;;;;21.50;19.03;;;18.80;99.90;;;;;;5005103;28;20461;-85
2021/06/08 03:59:59;;;;;;;20.13;18.23;;;19.00;99.90;;;;;;5010952;28;20454;-85
2021/06/08 04:02:27;;;;;;;18.73;16.93;;;18.80;99.90;;;;;;4989542;28;20433;-86
2021/06/08 04:04:54;;;;;;;21.17;18.97;;;18.90;99.90;;;;;;4994349;28;20926;-84
2021/06/08 04:07:22;;;;;;;18.63;16.80;;;18.70;99.90;;;;;;5017430;28;20472;-84
2021/06/08 04:09:50;;;;;;;19.30;17.40;;;18.90;99.90;;;;;;5018471;28;20486;-85
2021/06/08 04:12:21;;;;;;;21.53;19.20;;;18.80;99.90;;;;;;5020601;28;20467;-86
2021/06/08 04:14:50;;;;;;;20.20;18.10;;;18.80;99.90;;;;;;5002192;28;20833;-85
2021/06/08 04:17:17;;;;;;;21.20;19.00;;;18.90;99.90;;;;;;4991568;28;20541;-84
2021/06/08 04:19:45;;;;;;;20.80;18.50;;;18.80;99.90;;;;;;5013707;28;20469;-86
2021/06/08 04:22:11;;;;;;;21.00;18.93;;;18.80;99.90;;;;;;4999472;28;20455;-84
2021/06/08 04:24:39;;;;;;;20.50;16.03;;;19.00;99.90;;;;;;5004096;28;20444;-86
2021/06/08 04:27:07;;;;;;;19.27;17.37;;;18.80;99.90;;;;;;5026837;28;20811;-85
2021/06/08 04:29:34;;;;;;;21.50;19.37;;;18.80;99.90;;;;;;5005910;28;20864;-84
2021/06/08 04:32:01;;;;;;;18.97;17.17;;;19.00;99.90;;;;;;5000276;28;20460;-85
2021/06/08 04:34:27;;;;;;;21.93;19.70;;;19.00;99.90;;;;;;4998182;28;20446;-86
2021/06/08 04:36:54;;;;;;;21.73;19.63;;;19.10;99.90;;;;;;5022715;28;20473;-85
2021/06/08 04:39:21;;;;;;;22.70;20.50;;;18.90;99.90;;;;;;5008247;28;20454;-83
2021/06/08 04:41:48;;;;;;;20.40;18.30;;;19.10;99.90;;;;;;5003143;28;20458;-84
2021/06/08 04:44:20;;;;;;;20.03;17.93;;;19.10;99.90;;;;;;4997938;28;20464;-85
2021/06/08 04:46:48;;;;;;;20.63;18.63;;;19.20;99.90;;;;;;5018575;28;20475;-85
2021/06/08 04:49:16;;;;;;;20.53;18.63;;;19.10;99.90;;;;;;4988829;28;20457;-85
2021/06/08 04:51:43;;;;;;;22.20;20.00;;;19.20;99.90;;;;;;4999161;28;20426;-84
2021/06/08 04:54:09;;;;;;;20.43;18.50;;;19.00;99.90;;;;;;5008148;28;20513;-85
2021/06/08 04:56:36;;;;;;;20.00;18.00;;;19.10;99.90;;;;;;5009840;28;20488;-86
2021/06/08 04:59:03;;;;;;;21.77;19.67;;;19.20;99.90;;;;;;5008180;28;20459;-83
2021/06/08 05:01:35;;;;;;;23.70;21.40;;;19.10;99.90;;;;;;5006416;28;20934;-86
2021/06/08 05:04:08;;;;;;;22.60;20.37;;;19.30;99.90;;;;;;5009702;28;20461;-84
2021/06/08 05:06:39;;;;;;;21.67;19.37;;;19.40;99.90;;;;;;4991373;28;20932;-86
2021/06/08 05:09:10;;;;;;;21.27;19.07;;;19.20;99.90;;;;;;4990835;28;20458;-85
2021/06/08 05:11:42;;;;;;;22.07;19.87;;;19.40;99.90;;;;;;5030731;28;20982;-86
2021/06/08 05:14:11;;;;;;;21.30;19.20;;;19.20;99.90;;;;;;4991742;28;20472;-83
2021/06/08 05:16:40;;;;;;;21.90;19.70;;;19.40;99.90;;;;;;4999383;28;20509;-83
2021/06/08 05:19:09;;;;;;;19.50;17.47;;;19.40;99.90;;;;;;5018669;28;20491;-83
2021/06/08 05:21:36;;;;;;;19.20;17.40;;;19.50;99.90;;;;;;5006324;28;20554;-83
2021/06/08 05:24:04;;;;;;;22.20;19.93;;;19.30;99.90;;;;;;5009840;28;20555;-84
2021/06/08 05:26:31;;;;;;;22.97;20.67;;;19.30;99.90;;;;;;4999574;28;20478;-84
2021/06/08 05:28:59;;;;;;;24.03;19.60;;;19.50;99.90;;;;;;5016420;28;20472;-84
2021/06/08 05:31:26;;;;;;;22.23;20.07;;;19.50;99.90;;;;;;5007643;28;20494;-85
2021/06/08 05:33:59;;;;;;;23.33;20.97;;;19.60;99.90;;;;;;5026439;28;20866;-85
2021/06/08 05:36:29;;;;;;;21.70;19.43;;;19.40;99.90;;;;;;5006833;28;20891;-85
2021/06/08 05:38:56;;;;;;;20.83;18.73;;;19.60;99.90;;;;;;5024457;28;20527;-84
2021/06/08 05:41:24;;;;;;;22.07;19.97;;;19.60;99.90;;;;;;5002455;28;20509;-85
2021/06/08 05:43:50;;;;;;;20.60;18.60;;;19.80;99.90;;;;;;4990123;28;20447;-84
2021/06/08 05:46:17;;;;;;;21.67;19.43;;;19.90;99.90;;;;;;5014101;28;20547;-84
2021/06/08 05:48:43;;;;;;;20.97;18.97;;;19.70;99.90;;;;;;5019356;28;20454;-89
2021/06/08 05:51:12;;;;;;;23.83;20.37;;;19.90;99.90;;;;;;5021445;28;21002;-85
2021/06/08 05:53:39;;;;;;;21.93;19.93;;;19.90;99.90;;;;;;4997134;28;20455;-84
2021/06/08 05:56:08;;;;;;;22.13;19.67;;;20.10;99.90;;;;;;4981254;28;20483;-84
2021/06/08 05:58:35;;;;;;;21.60;19.60;;;20.10;99.90;;;;;;5013302;28;20462;-83
2021/06/08 06:01:04;;;;;;;20.73;18.73;;;20.10;99.90;;;;;;5017823;28;20465;-84
2021/06/08 06:03:35;;;;;;;20.27;18.33;;;20.30;99.90;;;;;;5003902;28;20455;-83
2021/06/08 06:06:04;;;;;;;23.40;21.20;;;20.20;99.90;;;;;;5005364;28;20489;-83
2021/06/08 06:08:32;;;;;;;23.30;21.10;;;20.40;99.90;;;;;;5000269;28;20462;-83
2021/06/08 06:11:00;;;;;;;23.30;21.00;;;20.30;99.90;;;;;;4995422;28;20894;-85
2021/06/08 06:13:28;;;;;;;22.50;20.20;;;20.50;99.90;;;;;;5017814;28;20451;-87
2021/06/08 06:15:56;;;;;;;22.10;19.67;;;20.60;99.90;;;;;;5008840;28;20490;-86
2021/06/08 06:18:26;;;;;;;23.47;19.57;;;20.50;99.90;;;;;;4998040;28;20943;-83
2021/06/08 06:20:54;;;;;;;21.70;19.63;;;20.50;99.90;;;;;;4996259;28;20456;-82
2021/06/08 06:23:22;;;;;;;21.17;19.20;;;20.80;99.90;;;;;;5008620;28;20890;-82
2021/06/08 06:25:51;;;;;;;21.40;19.00;;;20.70;99.90;;;;;;5016943;28;20477;-84
2021/06/08 06:28:18;;;;;;;19.67;17.77;;;20.80;99.90;;;;;;4999125;28;21018;-80
2021/06/08 06:30:47;;;;;;;21.33;19.23;;;20.80;99.90;;;;;;4971526;28;20497;-86
2021/06/08 06:33:16;;;;;;;21.37;19.37;;;21.10;99.90;;;;;;4982186;28;20459;-86
2021/06/08 06:35:42;;;;;;;19.50;16.70;;;21.10;99.90;;;;;;5016176;28;20521;-87
2021/06/08 06:38:10;;;;;;;17.73;15.93;;;21.00;99.90;;;;;;5021424;28;20451;-87
2021/06/08 06:40:39;;;;;;;15.77;14.30;;;21.40;99.90;;;;;;4996356;28;20489;-87
2021/06/08 06:43:13;;;;;;;14.73;13.23;;;21.70;99.90;;;;;;4987595;28;20454;-83
2021/06/08 06:45:47;;;;;;;16.73;14.97;;;22.00;99.90;;;;;;5010032;28;20485;-89
2021/06/08 06:48:15;;;;;;;15.67;14.30;;;22.20;99.90;;;;;;5001193;28;20462;-87
2021/06/08 06:50:45;;;;;;;17.87;15.57;;;22.60;99.90;;;;;;5004755;28;20995;-90
2021/06/08 06:53:46;;;;;;;15.17;13.77;;;22.70;99.90;;;;;;5015458;28;20469;-88
2021/06/08 06:56:13;;;;;;;14.40;13.20;;;22.90;99.90;;;;;;4993824;28;20810;-84
2021/06/08 06:58:42;;;;;;;16.03;14.53;;;23.20;99.90;;;;;;4996616;28;20459;-88
2021/06/08 07:01:09;;;;;;;16.90;15.33;;;23.50;99.90;;;;;;5027849;28;20454;-88
2021/06/08 07:03:36;;;;;;;15.67;14.33;;;23.80;99.90;;;;;;4997067;28;20451;-88
2021/06/08 07:06:03;;;;;;;15.87;14.57;;;24.00;99.90;;;;;;5004303;28;20474;-88
2021/06/08 07:08:32;;;;;;;15.10;13.67;;;24.20;99.90;;;;;;5017844;28;20455;-89
2021/06/08 07:10:59;;;;;;;15.93;14.33;;;24.30;99.90;;;;;;5005840;28;20491;-86
2021/06/08 07:13:27;;;;;;;15.20;13.90;;;24.70;99.90;;;;;;4997188;28;20490;-88
2021/06/08 07:15:55;;;;;;;18.47;16.80;;;25.00;99.90;;;;;;5008307;28;20633;-87
2021/06/08 07:18:23;;;;;;;17.03;15.57;;;25.10;99.90;;;;;;5006082;28;20536;-89
2021/06/08 07:20:50;;;;;;;15.77;14.30;;;25.20;99.90;;;;;;5028654;28;20458;-88
2021/06/08 07:23:20;;;;;;;16.70;15.17;;;25.00;99.90;;;;;;5017844;28;20810;-88
2021/06/08 07:25:48;;;;;;;16.47;15.07;;;25.00;99.90;;;;;;5011402;28;20481;-89
2021/06/08 07:28:18;;;;;;;15.40;14.07;;;24.70;99.90;;;;;;5018160;28;22556;-88
2021/06/08 07:30:46;;;;;;;17.77;16.20;;;24.80;99.90;;;;;;4996470;28;20493;-88
2021/06/08 07:33:22;;;;;;;16.10;14.70;;;24.60;99.90;;;;;;5005829;28;20459;-86
2021/06/08 07:35:53;;;;;;;16.57;14.97;;;24.50;99.90;;;;;;5007144;28;20584;-89
2021/06/08 07:38:22;;;;;;;16.70;14.90;;;24.30;99.90;;;;;;4994568;28;20459;-88
2021/06/08 07:40:56;;;;;;;17.67;16.17;;;24.10;99.90;;;;;;4986768;28;20459;-88
2021/06/08 07:43:26;;;;;;;17.40;15.83;;;24.00;99.90;;;;;;4998754;28;20465;-88
2021/06/08 07:45:54;;;;;;;17.60;15.90;;;23.90;99.90;;;;;;4986495;28;20490;-86
2021/06/08 07:48:29;;;;;;;20.70;18.70;;;23.90;99.90;;;;;;5004813;28;20473;-87
2021/06/08 07:50:58;;;;;;;17.73;15.93;;;23.60;99.90;;;;;;5017268;28;20477;-88
2021/06/08 07:53:30;;;;;;;13.50;12.13;;;23.70;99.90;;;;;;5012198;28;20469;-88
2021/06/08 07:55:57;;;;;;;14.80;13.40;;;23.80;99.90;;;;;;4996705;28;20486;-87
2021/06/08 07:58:25;;;;;;;17.67;16.07;;;23.80;99.90;;;;;;5009343;28;20455;-87
2021/06/08 08:00:53;;;;;;;20.10;18.20;;;23.60;99.90;;;;;;4982823;28;20570;-87
2021/06/08 08:03:25;;;;;;;20.37;18.53;;;23.60;99.90;;;;;;5010035;28;20461;-88
2021/06/08 08:05:53;;;;;;;19.73;17.80;;;23.40;99.90;;;;;;5016655;28;20466;-88
2021/06/08 08:08:20;;;;;;;20.40;18.50;;;23.40;99.90;;;;;;5001127;28;20480;-88
2021/06/08 08:10:47;;;;;;;19.20;17.40;;;23.60;99.90;;;;;;5014376;28;20886;-86
2021/06/08 08:13:15;;;;;;;16.10;14.60;;;23.50;99.90;;;;;;5008852;28;20816;-88
2021/06/08 08:15:46;;;;;;;16.80;15.17;;;23.40;99.90;;;;;;5022980;28;20845;-85
2021/06/08 08:18:13;;;;;;;18.33;16.43;;;23.40;99.90;;;;;;5007072;28;20506;-88
2021/06/08 08:20:48;;;;;;;19.30;17.40;;;23.20;99.90;;;;;;5021525;28;20473;-88
2021/06/08 08:23:16;;;;;;;16.50;15.00;;;23.20;99.90;;;;;;5012469;28;20464;-87
2021/06/08 08:25:43;;;;;;;15.37;13.87;;;23.20;99.90;;;;;;5007627;28;20477;-85
2021/06/08 08:28:11;;;;;;;16.63;15.23;;;23.10;99.90;;;;;;4999257;28;20955;-87
2021/06/08 08:30:38;;;;;;;17.00;15.30;;;23.10;99.90;;;;;;5025851;28;20539;-88
2021/06/08 08:33:05;;;;;;;16.23;14.57;;;23.00;99.90;;;;;;5014807;28;20454;-87
2021/06/08 08:35:33;;;;;;;18.93;16.20;;;23.10;99.90;;;;;;5025929;28;20519;-87
2021/06/08 08:38:01;;;;;;;16.60;15.10;;;23.00;99.90;;;;;;5017681;28;20537;-87
2021/06/08 08:40:28;;;;;;;16.47;14.93;;;22.80;99.90;;;;;;5004006;28;20470;-87
2021/06/08 08:42:55;;;;;;;18.53;16.03;;;22.90;99.90;;;;;;5006934;28;20465;-87
2021/06/08 08:45:22;;;;;;;14.97;13.57;;;22.80;99.90;;;;;;5030669;28;20823;-87
2021/06/08 08:47:49;;;;;;;15.00;13.50;;;22.90;99.90;;;;;;5005353;28;20533;-88
2021/06/08 08:50:17;;;;;;;12.10;10.93;;;22.90;99.90;;;;;;5001132;28;20482;-86
2021/06/08 08:52:45;;;;;;;16.63;14.17;;;22.90;99.90;;;;;;5012793;28;20461;-86
2021/06/08 08:55:14;;;;;;;13.53;12.30;;;22.70;99.90;;;;;;5011276;28;20553;-86
2021/06/08 08:57:42;;;;;;;12.83;11.73;;;22.60;99.90;;;;;;5004962;28;20466;-86
2021/06/08 09:00:10;;;;;;;13.03;11.73;;;22.70;99.90;;;;;;5028353;28;20545;-87
2021/06/08 09:02:37;;;;;;;11.30;10.17;;;22.60;99.90;;;;;;5023825;28;20541;-86
2021/06/08 09:05:05;;;;;;;14.17;12.87;;;22.60;99.90;;;;;;5026054;28;20549;-85
2021/06/08 09:07:32;;;;;;;11.10;10.10;;;22.60;99.90;;;;;;5018524;28;20571;-86
2021/06/08 09:09:59;;;;;;;11.60;10.60;;;22.70;99.90;;;;;;5000742;28;20459;-86
2021/06/08 09:12:28;;;;;;;11.17;10.17;;;22.60;99.90;;;;;;5008295;28;20447;-86
2021/06/08 09:14:54;;;;;;;13.20;12.10;;;22.60;99.90;;;;;;5028737;28;20791;-86
2021/06/08 09:17:21;;;;;;;14.40;11.63;;;22.50;99.90;;;;;;5025511;28;20565;-86
2021/06/08 09:19:48;;;;;;;10.90;9.90;;;22.50;99.90;;;;;;4980328;28;20455;-86
2021/06/08 09:22:15;;;;;;;9.13;7.60;;;22.70;99.90;;;;;;5022903;28;20458;-85
2021/06/08 09:24:44;;;;;;;10.47;9.57;;;22.80;99.90;;;;;;5004468;28;20459;-86
2021/06/08 09:27:12;;;;;;;11.67;10.57;;;22.80;99.90;;;;;;5002862;28;20470;-85
2021/06/08 09:29:41;;;;;;;11.57;10.33;;;22.80;99.90;;;;;;5014691;28;20466;-86
2021/06/08 09:32:12;;;;;;;11.50;10.40;;;22.60;99.90;;;;;;5004559;28;20576;-85
2021/06/08 09:34:41;;;;;;;9.00;8.20;;;22.60;99.90;;;;;;5015745;28;20794;-86
2021/06/08 09:37:08;;;;;;;8.80;7.80;;;22.80;99.90;;;;;;5019082;28;20471;-83
2021/06/08 09:39:38;;;;;;;8.50;7.70;;;22.90;99.90;;;;;;5006968;28;20454;-87
2021/06/08 09:42:24;;;;;;;8.70;7.80;;;22.90;99.90;;;;;;5014784;28;20479;-86
2021/06/08 09:44:53;;;;;;;7.87;7.07;;;23.00;99.90;;;;;;5018079;28;20473;-86
2021/06/08 09:47:28;;;;;;;6.87;6.17;;;22.90;99.90;;;;;;5009464;28;20569;-85
2021/06/08 09:49:58;;;;;;;6.53;6.00;;;23.00;99.90;;;;;;5014092;28;20863;-85
2021/06/08 09:52:24;;;;;;;8.00;6.80;;;22.90;99.90;;;;;;4983572;28;20463;-86
2021/06/08 09:54:56;;;;;;;7.73;7.03;;;22.90;99.90;;;;;;5006009;28;20446;-86
2021/06/08 09:57:26;;;;;;;6.23;5.63;;;22.70;99.90;;;;;;4989399;28;20905;-83
2021/06/08 09:59:56;;;;;;;5.90;5.40;;;22.60;99.90;;;;;;5012926;28;20455;-86
2021/06/08 10:02:28;;;;;;;6.73;6.13;;;22.70;99.90;;;;;;5000955;28;20554;-85
2021/06/08 10:05:16;;;;;;;5.93;5.43;;;22.60;99.90;;;;;;4985478;28;20455;-84
2021/06/08 10:07:43;;;;;;;7.97;7.20;;;22.40;99.90;;;;;;5006738;28;20447;-87
2021/06/08 10:10:14;;;;;;;9.40;8.13;;;22.30;99.90;;;;;;5023438;28;20462;-85
2021/06/08 10:12:56;;;;;;;10.87;9.03;;;22.20;99.90;;;;;;4985761;28;20805;-86
2021/06/08 10:15:37;;;;;;;9.20;8.30;;;22.00;99.90;;;;;;4989702;28;20516;-84
2021/06/08 10:18:06;;;;;;;12.47;8.90;;;22.00;99.90;;;;;;5000240;28;20470;-86
2021/06/08 10:20:35;;;;;;;11.27;8.30;;;21.80;99.90;;;;;;5004691;28;20590;-85
2021/06/08 10:23:18;;;;;;;10.67;9.67;;;22.00;99.90;;;;;;4993808;28;20500;-84
2021/06/08 10:25:46;;;;;;;12.20;10.90;;;22.00;99.90;;;;;;4978949;28;20473;-84
2021/06/08 10:28:12;;;;;;;10.93;9.93;;;21.90;99.90;;;;;;4990505;28;20456;-84
2021/06/08 10:30:42;;;;;;;11.07;9.97;;;22.00;99.90;;;;;;5003904;28;20486;-81
2021/06/08 10:33:09;;;;;;;9.83;8.93;;;22.00;99.90;;;;;;5006414;28;20447;-83
2021/06/08 10:35:36;;;;;;;12.23;11.13;;;22.00;99.90;;;;;;5004693;28;21065;-84
2021/06/08 10:38:03;;;;;;;11.00;10.00;;;22.20;99.90;;;;;;5028941;28;20539;-83
2021/06/08 10:40:30;;;;;;;12.17;11.17;;;22.10;99.90;;;;;;5026512;28;20468;-86
2021/06/08 10:43:01;;;;;;;11.50;10.40;;;22.00;99.90;;;;;;4977626;28;20452;-84
2021/06/08 10:45:33;;;;;;;11.10;10.20;;;22.10;99.90;;;;;;5029360;28;20464;-85
2021/06/08 10:48:07;;;;;;;12.13;11.13;;;22.20;99.90;;;;;;5018770;28;20792;-85
2021/06/08 10:50:36;;;;;;;12.93;11.70;;;22.10;99.90;;;;;;5024652;28;20489;-85
2021/06/08 10:53:03;;;;;;;12.67;11.57;;;22.10;99.90;;;;;;5009819;28;20465;-85
2021/06/08 10:55:36;;;;;;;11.20;10.13;;;22.20;99.90;;;;;;5006084;28;20474;-83
2021/06/08 10:58:03;;;;;;;12.67;11.37;;;22.30;99.90;;;;;;4999063;28;20472;-84
2021/06/08 11:00:40;;;;;;;11.40;10.40;;;22.20;99.90;;;;;;4990375;28;20458;-84
2021/06/08 11:03:09;;;;;;;11.90;10.77;;;22.20;99.90;;;;;;5028069;28;20466;-83
2021/06/08 11:05:54;;;;;;;10.90;9.97;;;22.10;99.90;;;;;;5022412;28;20573;-84
2021/06/08 11:08:20;;;;;;;13.00;11.90;;;22.10;99.90;;;;;;4986524;28;20820;-83
2021/06/08 11:10:53;;;;;;;13.17;12.03;;;21.80;99.90;;;;;;5013136;28;20886;-84
2021/06/08 11:13:42;;;;;;;10.73;9.70;;;21.80;99.90;;;;;;5015491;28;20458;-83
2021/06/08 11:16:39;;;;;;;13.00;11.77;;;22.00;99.90;;;;;;4977406;28;20592;-84
2021/06/08 11:19:07;;;;;;;11.73;10.60;;;21.70;99.90;;;;;;4971489;28;20537;-84
2021/06/08 11:21:36;;;;;;;14.23;12.93;;;21.70;99.90;;;;;;5016239;28;20952;-84
2021/06/08 11:24:04;;;;;;;12.70;11.40;;;21.60;99.90;;;;;;5016643;28;20486;-83
2021/06/08 11:26:51;;;;;;;16.60;11.80;;;21.70;99.90;;;;;;4995780;28;20505;-82
2021/06/08 11:29:47;;;;;;;13.17;11.67;;;21.70;99.90;;;;;;4999897;28;20471;-85
2021/06/08 11:32:47;;;;;;;11.77;10.77;;;21.70;99.90;;;;;;4990828;28;20495;-82
2021/06/08 11:35:21;;;;;;;12.33;11.13;;;21.70;99.90;;;;;;4996785;28;20446;-82
2021/06/08 11:37:51;;;;;;;10.10;9.10;;;21.70;99.90;;;;;;4999709;28;20508;-82
2021/06/08 11:40:48;;;;;;;11.93;10.80;;;21.70;99.90;;;;;;5004097;28;20554;-82
2021/06/08 11:43:44;;;;;;;12.80;11.50;;;21.70;99.90;;;;;;4986414;28;20470;-81
2021/06/08 11:46:12;;;;;;;14.10;12.90;;;21.60;99.90;;;;;;5000642;28;20572;-83
2021/06/08 11:48:41;;;;;;;12.63;11.53;;;21.70;99.90;;;;;;5007257;28;20799;-84
2021/06/08 11:51:34;;;;;;;12.77;11.57;;;21.60;99.90;;;;;;4995250;28;20483;-83
2021/06/08 11:54:02;;;;;;;13.63;12.50;;;21.60;99.90;;;;;;5017761;28;20541;-82
2021/06/08 11:56:45;;;;;;;12.60;11.47;;;21.70;99.90;;;;;;5000538;28;20486;-83
2021/06/08 11:59:13;;;;;;;11.90;10.80;;;21.70;99.90;;;;;;5005082;28;20857;-83
2021/06/08 12:01:44;;;;;;;12.40;11.20;;;21.60;99.90;;;;;;5009191;28;20474;-83
2021/06/08 12:04:11;;;;;;;12.97;11.67;;;21.60;99.90;;;;;;4984767;28;20971;-87
2021/06/08 12:06:59;;;;;;;11.00;10.00;;;21.70;99.90;;;;;;5017629;28;20481;-86
2021/06/08 12:09:26;;;;;;;12.13;11.07;;;21.60;99.90;;;;;;5018031;28;20455;-82
2021/06/08 12:11:54;;;;;;;14.23;12.83;;;21.50;99.90;;;;;;4984054;28;20967;-84
2021/06/08 12:14:25;;;;;;;13.57;12.00;;;21.60;99.90;;;;;;4989841;28;20467;-86
2021/06/08 12:16:53;;;;;;;13.30;12.10;;;21.60;99.90;;;;;;5022396;28;20484;-83
2021/06/08 12:19:20;;;;;;;12.70;11.40;;;21.60;99.90;;;;;;5028127;28;20989;-85
2021/06/08 12:21:47;;;;;;;10.47;9.33;;;21.60;99.90;;;;;;4989805;28;20455;-83
2021/06/08 12:24:19;;;;;;;11.37;10.37;;;21.80;99.90;;;;;;5010533;28;20478;-86
2021/06/08 12:27:03;;;;;;;10.93;9.90;;;21.70;99.90;;;;;;4986817;28;20473;-85
2021/06/08 12:29:29;;;;;;;11.93;10.73;;;21.80;99.90;;;;;;5013024;28;20462;-85
2021/06/08 12:32:00;;;;;;;12.37;11.33;;;21.80;99.90;;;;;;5012477;28;20497;-86
2021/06/08 12:34:28;;;;;;;11.50;9.30;;;21.70;99.90;;;;;;5021010;28;20953;-85
2021/06/08 12:36:55;;;;;;;9.43;8.63;;;21.90;99.90;;;;;;4985955;28;21014;-83
2021/06/08 12:39:28;;;;;;;10.00;9.10;;;21.80;99.90;;;;;;4999626;28;20952;-84
2021/06/08 12:42:08;;;;;;;11.23;10.17;;;21.80;99.90;;;;;;5015013;28;20466;-85
2021/06/08 12:44:35;;;;;;;10.10;9.30;;;21.70;99.90;;;;;;4999567;28;20469;-85